Time;durP1;ratioP1;P1;durP2;ratioP2;P2;SDS_P1;SDS_P2;PMS_P1;PMS_P2;Temp;Humidity;BMP_temperature;BMP_pressure;BME280_temperature;BME280_humidity;BME280_pressure;Samples;Min_cycle;Max_cycle;Signal;HPM_P1;HPM_P2
2020/12/13 00:00:32;;;;;;;2.72;0.98;;;;;;;;;;5072322;28;20051;-46
2020/12/13 00:03:00;;;;;;;2.70;1.00;;;;;;;;;;5083924;28;20020;-48
2020/12/13 00:05:26;;;;;;;5.47;1.20;;;;;;;;;;5067548;28;20037;-47
2020/12/13 00:07:53;;;;;;;3.80;1.08;;;;;;;;;;5076050;28;20028;-50
2020/12/13 00:10:21;;;;;;;10.75;3.42;;;;;;;;;;5084354;28;20059;-46
2020/12/13 00:12:47;;;;;;;11.57;3.08;;;;;;;;;;5067783;28;20415;-48
2020/12/13 00:15:13;;;;;;;12.40;3.50;;;;;;;;;;5078917;28;20024;-49
2020/12/13 00:17:39;;;;;;;8.30;2.30;;;;;;;;;;5086891;28;20050;-48
2020/12/13 00:20:06;;;;;;;9.38;3.20;;;;;;;;;;5073822;28;20177;-47
2020/12/13 00:22:32;;;;;;;8.32;3.55;;;;;;;;;;5063007;28;20039;-46
2020/12/13 00:24:59;;;;;;;5.35;1.70;;;;;;;;;;5063817;28;20031;-48
2020/12/13 00:27:25;;;;;;;10.60;2.85;;;;;;;;;;5063995;28;20035;-47
2020/12/13 00:29:51;;;;;;;6.57;2.45;;;;;;;;;;5078210;28;20024;-47
2020/12/13 00:32:17;;;;;;;7.25;2.30;;;;;;;;;;5083118;28;20402;-48
2020/12/13 00:34:44;;;;;;;8.60;2.30;;;;;;;;;;5083955;28;20375;-46
2020/12/13 00:37:10;;;;;;;9.80;2.38;;;;;;;;;;5084196;28;20119;-47
2020/12/13 00:39:38;;;;;;;4.85;1.48;;;;;;;;;;5082229;28;20402;-47
2020/12/13 00:42:04;;;;;;;8.25;1.38;;;;;;;;;;5078267;28;20564;-47
2020/12/13 00:44:30;;;;;;;6.53;2.00;;;;;;;;;;5064761;28;20047;-47
2020/12/13 00:46:56;;;;;;;3.45;1.23;;;;;;;;;;5063720;28;20037;-48
2020/12/13 00:49:22;;;;;;;7.32;1.38;;;;;;;;;;5063331;28;20025;-47
2020/12/13 00:51:48;;;;;;;2.95;0.93;;;;;;;;;;5067261;28;20062;-47
2020/12/13 00:54:14;;;;;;;3.40;0.90;;;;;;;;;;5081916;28;20056;-47
2020/12/13 00:56:43;;;;;;;5.65;1.02;;;;;;;;;;5067495;28;20043;-47
2020/12/13 00:59:10;;;;;;;2.72;0.90;;;;;;;;;;5063165;28;20070;-47
2020/12/13 01:01:36;;;;;;;4.22;1.35;;;;;;;;;;5062793;28;20048;-49
2020/12/13 01:04:02;;;;;;;4.13;1.15;;;;;;;;;;5064165;28;20517;-48
2020/12/13 01:06:28;;;;;;;3.83;1.00;;;;;;;;;;5063781;28;20093;-51
2020/12/13 01:08:55;;;;;;;1.70;0.68;;;;;;;;;;5063121;28;20483;-48
2020/12/13 01:11:23;;;;;;;2.45;0.60;;;;;;;;;;5063669;28;20043;-50
2020/12/13 01:13:49;;;;;;;2.83;0.80;;;;;;;;;;5063142;28;20112;-48
2020/12/13 01:16:17;;;;;;;1.35;0.75;;;;;;;;;;5064055;28;20036;-47
2020/12/13 01:18:43;;;;;;;0.95;0.50;;;;;;;;;;5063240;28;20021;-48
2020/12/13 01:21:19;;;;;;;1.95;0.60;;;;;;;;;;5063754;28;20035;-46
2020/12/13 01:23:46;;;;;;;0.60;0.50;;;;;;;;;;5063089;28;20093;-48
2020/12/13 01:26:17;;;;;;;2.45;0.80;;;;;;;;;;5063391;28;20070;-49
2020/12/13 01:28:43;;;;;;;3.03;0.85;;;;;;;;;;5063018;28;20036;-47
2020/12/13 01:31:12;;;;;;;3.03;0.90;;;;;;;;;;5063786;28;20048;-48
2020/12/13 01:33:38;;;;;;;1.65;0.90;;;;;;;;;;5063274;28;20052;-46
2020/12/13 01:36:04;;;;;;;3.55;0.90;;;;;;;;;;5063971;28;20060;-50
2020/12/13 01:38:30;;;;;;;2.35;0.82;;;;;;;;;;5061918;28;20035;-49
2020/12/13 01:41:00;;;;;;;3.08;0.80;;;;;;;;;;5061778;28;20362;-48
2020/12/13 01:43:26;;;;;;;1.77;0.82;;;;;;;;;;5063278;28;20032;-49
2020/12/13 01:45:52;;;;;;;2.63;0.85;;;;;;;;;;5065482;28;20029;-46
2020/12/13 01:48:19;;;;;;;2.67;0.80;;;;;;;;;;5078161;28;20031;-46
2020/12/13 01:53:25;;;;;;;3.00;1.00;;;;;;;;;;5071359;28;20038;-46
2020/12/13 01:55:56;;;;;;;1.27;0.93;;;;;;;;;;5067533;28;20036;-47
2020/12/13 01:58:30;;;;;;;1.85;0.93;;;;;;;;;;5069556;28;20060;-48
2020/12/13 02:00:58;;;;;;;0.82;0.55;;;;;;;;;;5068945;28;20043;-47
2020/12/13 02:03:26;;;;;;;0.90;0.70;;;;;;;;;;5068938;28;20119;-48
2020/12/13 02:06:01;;;;;;;1.27;0.63;;;;;;;;;;5068961;28;20391;-49
2020/12/13 02:08:36;;;;;;;0.85;0.50;;;;;;;;;;5069238;28;20021;-48
2020/12/13 02:11:03;;;;;;;1.27;0.60;;;;;;;;;;5069376;28;20072;-48
2020/12/13 02:13:29;;;;;;;1.23;0.52;;;;;;;;;;5069207;28;20025;-46
2020/12/13 02:15:55;;;;;;;0.60;0.52;;;;;;;;;;5068730;28;20032;-47
2020/12/13 02:18:21;;;;;;;1.63;0.70;;;;;;;;;;5068652;28;20111;-46
2020/12/13 02:20:47;;;;;;;1.05;0.60;;;;;;;;;;5068623;28;20568;-48
2020/12/13 02:23:13;;;;;;;0.75;0.40;;;;;;;;;;5069288;28;20530;-50
2020/12/13 02:25:39;;;;;;;1.80;0.50;;;;;;;;;;5068944;28;20387;-47
2020/12/13 02:28:05;;;;;;;1.45;0.60;;;;;;;;;;5068275;28;20035;-47
2020/12/13 02:30:32;;;;;;;2.03;0.50;;;;;;;;;;5067527;28;20028;-46
2020/12/13 02:32:59;;;;;;;1.45;0.65;;;;;;;;;;5068009;28;20108;-47
2020/12/13 02:35:25;;;;;;;1.77;0.50;;;;;;;;;;5069482;28;20605;-49
2020/12/13 02:37:51;;;;;;;0.40;0.40;;;;;;;;;;5067840;28;20035;-49
2020/12/13 02:40:17;;;;;;;0.65;0.40;;;;;;;;;;5069375;28;20051;-47
2020/12/13 02:42:44;;;;;;;0.95;0.40;;;;;;;;;;5075968;28;20035;-47
2020/12/13 02:45:10;;;;;;;0.40;0.40;;;;;;;;;;5068167;28;20025;-47
2020/12/13 02:47:36;;;;;;;1.08;0.50;;;;;;;;;;5068026;28;20027;-51
2020/12/13 02:50:02;;;;;;;0.68;0.50;;;;;;;;;;5068423;28;20471;-47
2020/12/13 02:52:28;;;;;;;0.90;0.57;;;;;;;;;;5068433;28;20467;-47
2020/12/13 02:54:54;;;;;;;0.60;0.55;;;;;;;;;;5067978;28;20029;-47
2020/12/13 02:57:21;;;;;;;2.35;0.60;;;;;;;;;;5068214;28;20052;-50
2020/12/13 02:59:47;;;;;;;2.30;0.85;;;;;;;;;;5068181;28;20598;-46
2020/12/13 03:02:13;;;;;;;2.05;1.13;;;;;;;;;;5067271;28;20414;-48
2020/12/13 03:04:39;;;;;;;2.90;1.10;;;;;;;;;;5067693;28;20025;-47
2020/12/13 03:07:05;;;;;;;2.38;1.20;;;;;;;;;;5068055;28;20024;-49
2020/12/13 03:09:31;;;;;;;3.65;1.30;;;;;;;;;;5068320;28;20055;-47
2020/12/13 03:11:58;;;;;;;3.47;1.33;;;;;;;;;;5067730;28;20028;-47
2020/12/13 03:14:24;;;;;;;3.90;1.00;;;;;;;;;;5067982;28;20028;-49
2020/12/13 03:16:50;;;;;;;1.00;0.90;;;;;;;;;;5068049;28;20406;-47
2020/12/13 03:19:16;;;;;;;3.47;0.90;;;;;;;;;;5068666;28;20032;-47
2020/12/13 03:21:42;;;;;;;3.22;1.40;;;;;;;;;;5067976;28;20062;-46
2020/12/13 03:24:09;;;;;;;1.83;1.02;;;;;;;;;;5067898;28;20433;-50
2020/12/13 03:26:35;;;;;;;1.73;0.95;;;;;;;;;;5067758;28;20076;-48
2020/12/13 03:29:01;;;;;;;3.13;1.15;;;;;;;;;;5067449;28;20035;-47
2020/12/13 03:31:27;;;;;;;2.65;1.20;;;;;;;;;;5067506;28;20027;-46
2020/12/13 03:33:53;;;;;;;3.42;1.13;;;;;;;;;;5067219;28;20422;-48
2020/12/13 03:36:19;;;;;;;2.03;1.20;;;;;;;;;;5068215;28;20710;-47
2020/12/13 03:38:45;;;;;;;2.50;1.27;;;;;;;;;;5066328;28;20029;-47
2020/12/13 03:41:11;;;;;;;2.45;1.30;;;;;;;;;;5067780;28;20094;-47
2020/12/13 03:43:37;;;;;;;3.45;1.38;;;;;;;;;;5067321;28;20081;-47
2020/12/13 03:46:03;;;;;;;4.03;1.60;;;;;;;;;;5066761;28;20040;-49
2020/12/13 03:48:29;;;;;;;3.47;1.35;;;;;;;;;;5085203;28;20444;-46
2020/12/13 03:50:55;;;;;;;3.33;1.17;;;;;;;;;;5087438;28;20024;-48
2020/12/13 03:53:21;;;;;;;2.22;1.25;;;;;;;;;;5087574;28;20573;-48
2020/12/13 03:55:48;;;;;;;4.43;1.27;;;;;;;;;;5087763;28;20103;-48
2020/12/13 03:58:14;;;;;;;2.55;1.50;;;;;;;;;;5087378;28;20028;-46
2020/12/13 04:00:41;;;;;;;3.78;1.65;;;;;;;;;;5087312;28;20024;-48
2020/12/13 04:03:07;;;;;;;2.58;1.27;;;;;;;;;;5087348;28;20065;-47
2020/12/13 04:05:34;;;;;;;4.00;1.95;;;;;;;;;;5086047;28;20533;-46
2020/12/13 04:08:00;;;;;;;3.15;1.80;;;;;;;;;;5086898;28;20023;-48
2020/12/13 04:10:26;;;;;;;4.78;2.15;;;;;;;;;;5086303;28;20059;-49
2020/12/13 04:12:53;;;;;;;5.75;2.38;;;;;;;;;;5083373;28;20498;-50
2020/12/13 04:15:19;;;;;;;4.00;1.73;;;;;;;;;;5067033;28;20522;-47
2020/12/13 04:17:45;;;;;;;3.50;1.60;;;;;;;;;;5066702;28;20029;-48
2020/12/13 04:20:11;;;;;;;2.78;1.33;;;;;;;;;;5066837;28;20036;-46
2020/12/13 04:22:37;;;;;;;4.60;1.80;;;;;;;;;;5066370;28;20475;-48
2020/12/13 04:25:04;;;;;;;4.20;1.30;;;;;;;;;;5066767;28;20379;-51
2020/12/13 04:27:30;;;;;;;3.13;1.52;;;;;;;;;;5081956;28;20030;-51
2020/12/13 04:29:56;;;;;;;2.50;1.17;;;;;;;;;;5086509;28;20892;-50
2020/12/13 04:32:22;;;;;;;4.93;1.33;;;;;;;;;;5082700;28;20670;-48
2020/12/13 04:34:49;;;;;;;3.45;1.10;;;;;;;;;;5066776;28;20021;-51
2020/12/13 04:37:15;;;;;;;3.55;1.40;;;;;;;;;;5066643;28;20041;-50
2020/12/13 04:39:41;;;;;;;1.88;1.00;;;;;;;;;;5066102;28;20094;-50
2020/12/13 04:42:07;;;;;;;2.65;1.00;;;;;;;;;;5066239;28;20028;-48
2020/12/13 04:44:33;;;;;;;2.03;1.08;;;;;;;;;;5066080;28;20028;-47
2020/12/13 04:47:04;;;;;;;2.95;1.10;;;;;;;;;;5065873;28;20016;-47
2020/12/13 04:49:31;;;;;;;3.83;0.88;;;;;;;;;;5066306;28;20725;-47
2020/12/13 04:51:59;;;;;;;2.47;0.90;;;;;;;;;;5065975;28;20024;-48
2020/12/13 04:54:26;;;;;;;2.35;1.17;;;;;;;;;;5066012;28;20093;-48
2020/12/13 04:56:54;;;;;;;1.85;0.82;;;;;;;;;;5065436;28;20031;-48
2020/12/13 04:59:20;;;;;;;5.40;1.40;;;;;;;;;;5066617;28;20047;-46
2020/12/13 05:01:47;;;;;;;2.03;1.02;;;;;;;;;;5066262;28;20051;-51
2020/12/13 05:04:14;;;;;;;3.03;1.52;;;;;;;;;;5065992;28;20037;-50
2020/12/13 05:06:40;;;;;;;2.15;1.50;;;;;;;;;;5065857;28;20023;-49
2020/12/13 05:09:07;;;;;;;4.30;1.98;;;;;;;;;;5065918;28;20028;-49
2020/12/13 05:11:33;;;;;;;3.45;1.42;;;;;;;;;;5066084;28;20085;-47
2020/12/13 05:13:59;;;;;;;4.50;1.50;;;;;;;;;;5065543;28;20033;-46
2020/12/13 05:16:26;;;;;;;6.00;2.80;;;;;;;;;;5065802;28;20808;-48
2020/12/13 05:18:52;;;;;;;7.22;2.67;;;;;;;;;;5065466;28;20021;-46
2020/12/13 05:21:22;;;;;;;5.82;2.58;;;;;;;;;;5066400;28;20100;-49
2020/12/13 05:23:51;;;;;;;4.68;2.03;;;;;;;;;;5066245;28;20067;-47
2020/12/13 05:26:19;;;;;;;14.50;6.05;;;;;;;;;;5069481;28;20115;-47
2020/12/13 05:28:47;;;;;;;31.08;15.70;;;;;;;;;;5072302;28;20060;-46
2020/12/13 05:31:17;;;;;;;29.05;14.60;;;;;;;;;;5072415;28;20082;-47
2020/12/13 05:33:46;;;;;;;19.52;9.88;;;;;;;;;;5072118;28;20510;-47
2020/12/13 05:36:14;;;;;;;15.25;8.43;;;;;;;;;;5072480;28;20059;-47
2020/12/13 05:38:41;;;;;;;10.77;6.15;;;;;;;;;;5072195;28;20856;-49
2020/12/13 05:41:09;;;;;;;10.20;5.05;;;;;;;;;;5072322;28;20036;-48
2020/12/13 05:43:46;;;;;;;7.05;3.45;;;;;;;;;;5071956;28;20028;-48
2020/12/13 05:48:55;;;;;;;6.45;2.60;;;;;;;;;;5071960;28;20029;-47
2020/12/13 05:51:25;;;;;;;5.70;2.45;;;;;;;;;;5072359;28;20066;-48
2020/12/13 05:53:55;;;;;;;7.82;3.88;;;;;;;;;;5072073;28;20036;-49
2020/12/13 05:56:23;;;;;;;6.75;3.80;;;;;;;;;;5071932;28;20037;-48
2020/12/13 05:58:52;;;;;;;9.40;4.80;;;;;;;;;;5072287;28;20047;-47
2020/12/13 06:01:22;;;;;;;11.25;5.55;;;;;;;;;;5072809;28;20032;-46
2020/12/13 06:03:50;;;;;;;9.15;4.38;;;;;;;;;;5072593;28;20049;-47
2020/12/13 06:06:20;;;;;;;7.05;3.60;;;;;;;;;;5072828;28;20048;-46
2020/12/13 06:09:01;;;;;;;7.55;3.10;;;;;;;;;;5071888;28;20116;-49
2020/12/13 06:11:33;;;;;;;8.40;4.20;;;;;;;;;;5071987;28;20032;-49
2020/12/13 06:14:00;;;;;;;7.13;3.58;;;;;;;;;;5072080;28;20065;-46
2020/12/13 06:16:26;;;;;;;9.10;3.78;;;;;;;;;;5071974;28;20037;-46
2020/12/13 06:18:52;;;;;;;5.68;3.13;;;;;;;;;;5071511;28;20058;-47
2020/12/13 06:21:18;;;;;;;5.30;2.40;;;;;;;;;;5072876;28;20099;-47
2020/12/13 06:23:47;;;;;;;4.00;2.30;;;;;;;;;;5071886;28;20028;-48
2020/12/13 06:26:13;;;;;;;3.60;2.15;;;;;;;;;;5071883;28;20020;-47
2020/12/13 06:28:40;;;;;;;3.05;2.13;;;;;;;;;;5071867;28;20340;-46
2020/12/13 06:31:06;;;;;;;4.40;2.13;;;;;;;;;;5072015;28;20020;-47
2020/12/13 06:33:40;;;;;;;3.90;1.80;;;;;;;;;;5072098;28;20376;-48
2020/12/13 06:36:07;;;;;;;3.45;1.65;;;;;;;;;;5070679;28;20028;-46
2020/12/13 06:38:34;;;;;;;4.95;2.38;;;;;;;;;;5068044;28;20059;-47
2020/12/13 06:41:07;;;;;;;4.55;1.85;;;;;;;;;;5068244;28;20028;-46
2020/12/13 06:43:50;;;;;;;4.32;1.77;;;;;;;;;;5068616;28;20688;-50
2020/12/13 06:46:18;;;;;;;4.40;1.83;;;;;;;;;;5068618;28;20028;-51
2020/12/13 06:48:44;;;;;;;3.33;1.52;;;;;;;;;;5072493;28;20494;-51
2020/12/13 06:51:11;;;;;;;6.10;2.03;;;;;;;;;;5081598;28;20563;-51
2020/12/13 06:53:38;;;;;;;4.05;2.10;;;;;;;;;;5070048;28;20091;-50
2020/12/13 06:56:11;;;;;;;4.35;1.65;;;;;;;;;;5090190;28;20028;-49
2020/12/13 06:58:43;;;;;;;4.40;1.73;;;;;;;;;;5086463;28;20028;-48
2020/12/13 07:01:20;;;;;;;3.63;1.73;;;;;;;;;;5088899;28;20027;-47
2020/12/13 07:03:46;;;;;;;4.20;1.60;;;;;;;;;;5089095;28;20038;-46
2020/12/13 07:06:21;;;;;;;2.80;1.40;;;;;;;;;;5088971;28;20076;-47
2020/12/13 07:09:00;;;;;;;4.68;1.70;;;;;;;;;;5089020;28;20024;-49
2020/12/13 07:11:30;;;;;;;3.75;1.48;;;;;;;;;;5088458;28;20024;-49
2020/12/13 07:14:06;;;;;;;3.40;1.52;;;;;;;;;;5088193;28;20081;-50
2020/12/13 07:16:41;;;;;;;4.60;1.45;;;;;;;;;;5088690;28;20028;-46
2020/12/13 07:19:08;;;;;;;5.38;1.70;;;;;;;;;;5088556;28;20039;-49
2020/12/13 07:21:35;;;;;;;2.75;1.40;;;;;;;;;;5088567;28;20052;-51
2020/12/13 07:24:02;;;;;;;5.85;2.03;;;;;;;;;;5076531;28;20032;-47
2020/12/13 07:26:29;;;;;;;6.15;1.98;;;;;;;;;;5067870;28;20024;-48
2020/12/13 07:28:56;;;;;;;4.57;2.10;;;;;;;;;;5067552;28;20024;-48
2020/12/13 07:31:23;;;;;;;2.90;1.67;;;;;;;;;;5071315;28;20024;-49
2020/12/13 07:33:49;;;;;;;3.95;1.90;;;;;;;;;;5068356;28;20081;-48
2020/12/13 07:36:15;;;;;;;6.78;2.03;;;;;;;;;;5068651;28;20035;-48
2020/12/13 07:38:42;;;;;;;2.97;1.40;;;;;;;;;;5067780;28;20645;-48
2020/12/13 07:41:15;;;;;;;3.28;1.77;;;;;;;;;;5067604;28;20064;-47
2020/12/13 07:43:51;;;;;;;3.03;1.30;;;;;;;;;;5067214;28;20376;-46
2020/12/13 07:46:17;;;;;;;4.70;1.95;;;;;;;;;;5072497;28;20583;-46
2020/12/13 07:48:43;;;;;;;4.05;1.38;;;;;;;;;;5074504;28;20112;-47
2020/12/13 07:51:10;;;;;;;3.00;1.20;;;;;;;;;;5088071;28;20020;-46
2020/12/13 07:53:36;;;;;;;2.42;1.30;;;;;;;;;;5069541;28;20061;-46
2020/12/13 07:56:02;;;;;;;2.88;1.20;;;;;;;;;;5079729;28;20111;-47
2020/12/13 07:58:29;;;;;;;2.83;1.30;;;;;;;;;;5067366;28;20398;-47
2020/12/13 08:01:09;;;;;;;2.58;1.38;;;;;;;;;;5081208;28;20046;-48
2020/12/13 08:03:45;;;;;;;3.17;1.77;;;;;;;;;;5070038;28;20609;-46
2020/12/13 08:06:11;;;;;;;4.25;1.70;;;;;;;;;;5067203;28;20033;-46
2020/12/13 08:08:44;;;;;;;2.55;1.45;;;;;;;;;;5067098;28;20017;-48
2020/12/13 08:11:14;;;;;;;5.28;1.77;;;;;;;;;;5074995;28;20073;-47
2020/12/13 08:13:50;;;;;;;4.47;1.40;;;;;;;;;;5073307;28;20028;-49
2020/12/13 08:16:16;;;;;;;3.85;1.50;;;;;;;;;;5076916;28;20032;-48
2020/12/13 08:18:47;;;;;;;2.72;1.42;;;;;;;;;;5067885;28;20029;-48
2020/12/13 08:21:15;;;;;;;1.95;1.20;;;;;;;;;;5078754;28;20079;-47
2020/12/13 08:23:41;;;;;;;3.38;1.40;;;;;;;;;;5066839;28;20040;-46
2020/12/13 08:26:09;;;;;;;1.83;1.30;;;;;;;;;;5074368;28;20035;-48
2020/12/13 08:28:36;;;;;;;3.88;1.80;;;;;;;;;;5068856;28;20032;-47
2020/12/13 08:31:06;;;;;;;2.40;1.58;;;;;;;;;;5072808;28;20024;-49
2020/12/13 08:33:32;;;;;;;5.47;1.50;;;;;;;;;;5079197;28;20042;-47
2020/12/13 08:35:58;;;;;;;3.20;1.40;;;;;;;;;;5086711;28;20505;-48
2020/12/13 08:38:24;;;;;;;2.90;1.48;;;;;;;;;;5069565;28;20032;-46
2020/12/13 08:40:51;;;;;;;3.60;1.50;;;;;;;;;;5078235;28;20594;-47
2020/12/13 08:43:17;;;;;;;2.70;1.17;;;;;;;;;;5067165;28;20109;-47
2020/12/13 08:45:51;;;;;;;3.05;1.63;;;;;;;;;;5066117;28;20490;-46
2020/12/13 08:48:23;;;;;;;2.97;1.65;;;;;;;;;;5066475;28;20021;-45
2020/12/13 08:50:54;;;;;;;2.97;1.70;;;;;;;;;;5081624;28;20029;-46
2020/12/13 08:53:24;;;;;;;3.92;1.60;;;;;;;;;;5071280;28;20020;-48
2020/12/13 08:56:19;;;;;;;2.92;1.48;;;;;;;;;;5071245;28;20085;-46
2020/12/13 08:58:49;;;;;;;5.57;1.60;;;;;;;;;;5053337;28;20068;-49
2020/12/13 09:01:15;;;;;;;3.80;1.85;;;;;;;;;;5074039;28;20390;-45
2020/12/13 09:03:41;;;;;;;4.07;2.33;;;;;;;;;;5073716;28;20020;-47
2020/12/13 09:06:08;;;;;;;3.92;2.00;;;;;;;;;;5084261;28;20043;-47
2020/12/13 09:08:34;;;;;;;4.13;2.10;;;;;;;;;;5080242;28;20417;-46
2020/12/13 09:11:04;;;;;;;3.60;1.83;;;;;;;;;;5077275;28;20047;-45
2020/12/13 09:13:31;;;;;;;3.90;1.80;;;;;;;;;;5080841;28;20032;-50
2020/12/13 09:15:57;;;;;;;2.60;1.27;;;;;;;;;;5087157;28;20032;-51
2020/12/13 09:18:23;;;;;;;3.08;1.30;;;;;;;;;;5066988;28;20060;-49
2020/12/13 09:20:56;;;;;;;2.15;1.38;;;;;;;;;;5073372;28;20115;-47
2020/12/13 09:23:22;;;;;;;1.23;0.93;;;;;;;;;;5066480;28;20112;-46
2020/12/13 09:25:51;;;;;;;1.90;1.10;;;;;;;;;;5070705;28;20028;-50
2020/12/13 09:28:17;;;;;;;1.52;0.75;;;;;;;;;;5074497;28;20009;-46
2020/12/13 09:30:44;;;;;;;1.60;0.90;;;;;;;;;;5082776;28;20036;-46
2020/12/13 09:33:10;;;;;;;1.85;1.40;;;;;;;;;;5082729;28;21133;-46
2020/12/13 09:35:36;;;;;;;3.58;1.63;;;;;;;;;;5082685;28;20082;-44
2020/12/13 09:38:03;;;;;;;1.70;1.30;;;;;;;;;;5085630;28;20028;-49
2020/12/13 09:40:30;;;;;;;2.65;1.48;;;;;;;;;;5085703;28;20067;-46
2020/12/13 09:42:57;;;;;;;2.65;1.70;;;;;;;;;;5077079;28;20035;-46
2020/12/13 09:45:23;;;;;;;3.17;1.40;;;;;;;;;;5077026;28;20032;-46
2020/12/13 09:47:49;;;;;;;2.15;1.40;;;;;;;;;;5085870;28;20024;-48
2020/12/13 09:50:21;;;;;;;1.90;1.20;;;;;;;;;;5076680;28;20104;-48
2020/12/13 09:52:47;;;;;;;2.20;1.23;;;;;;;;;;5065316;28;20013;-49
2020/12/13 09:55:13;;;;;;;2.17;1.70;;;;;;;;;;5071630;28;20418;-48
2020/12/13 09:57:39;;;;;;;2.78;1.33;;;;;;;;;;5083779;28;20032;-47
2020/12/13 10:00:06;;;;;;;5.35;2.72;;;;;;;;;;5084937;28;20067;-49
2020/12/13 10:02:32;;;;;;;3.25;2.40;;;;;;;;;;5085670;28;20426;-45
2020/12/13 10:04:58;;;;;;;3.28;1.95;;;;;;;;;;5069239;28;20044;-45
2020/12/13 10:09:00;;;;;;;4.18;2.20;;;;;;;;;;5065310;28;20036;-46
2020/12/13 10:10:19;;;;;;;4.43;2.55;;;;;;;;;;5065517;28;20134;-45
2020/12/13 10:12:45;;;;;;;3.17;2.00;;;;;;;;;;5067942;28;20537;-46
2020/12/13 10:15:11;;;;;;;3.45;1.80;;;;;;;;;;5072697;28;20029;-45
2020/12/13 10:17:40;;;;;;;2.22;1.70;;;;;;;;;;5078121;28;20372;-45
2020/12/13 10:20:06;;;;;;;4.57;1.65;;;;;;;;;;5076853;28;20020;-46
2020/12/13 10:22:32;;;;;;;2.47;1.77;;;;;;;;;;5083250;28;20020;-46
2020/12/13 10:24:58;;;;;;;2.65;1.60;;;;;;;;;;5090124;28;20482;-45
2020/12/13 10:27:24;;;;;;;3.28;1.33;;;;;;;;;;5083142;28;20036;-46
2020/12/13 10:29:50;;;;;;;1.55;0.93;;;;;;;;;;5071416;28;20033;-46
2020/12/13 10:32:16;;;;;;;0.77;0.70;;;;;;;;;;5071021;28;20115;-50
2020/12/13 10:34:42;;;;;;;1.20;0.88;;;;;;;;;;5071459;28;20023;-46
2020/12/13 10:37:09;;;;;;;2.13;1.00;;;;;;;;;;5086306;28;20377;-46
2020/12/13 10:39:35;;;;;;;1.48;1.00;;;;;;;;;;5089042;28;20025;-49
2020/12/13 10:42:05;;;;;;;2.80;1.45;;;;;;;;;;5087893;28;20028;-47
2020/12/13 10:44:31;;;;;;;3.70;1.33;;;;;;;;;;5083087;28;20040;-48
2020/12/13 10:46:57;;;;;;;2.72;1.35;;;;;;;;;;5080022;28;20452;-47
2020/12/13 10:49:23;;;;;;;3.28;1.38;;;;;;;;;;5069389;28;20025;-48
2020/12/13 10:51:49;;;;;;;3.70;1.65;;;;;;;;;;5088486;28;20024;-45
2020/12/13 10:54:15;;;;;;;6.40;1.75;;;;;;;;;;5089556;28;20514;-47
2020/12/13 10:56:43;;;;;;;1.67;1.10;;;;;;;;;;5089151;28;20547;-50
2020/12/13 10:59:10;;;;;;;2.53;1.30;;;;;;;;;;5082875;28;20024;-50
2020/12/13 11:01:36;;;;;;;2.00;1.27;;;;;;;;;;5070259;28;20111;-45
2020/12/13 11:04:02;;;;;;;4.22;1.30;;;;;;;;;;5087575;28;20497;-45
2020/12/13 11:06:29;;;;;;;2.13;1.20;;;;;;;;;;5071407;28;20046;-48
2020/12/13 11:08:55;;;;;;;1.80;1.10;;;;;;;;;;5093563;28;20067;-47
2020/12/13 11:11:21;;;;;;;3.50;2.15;;;;;;;;;;5097293;28;20040;-45
2020/12/13 11:13:47;;;;;;;3.95;2.40;;;;;;;;;;5084152;28;20095;-46
2020/12/13 11:16:14;;;;;;;10.65;5.60;;;;;;;;;;5089527;28;20056;-46
2020/12/13 11:18:40;;;;;;;12.07;5.80;;;;;;;;;;5086694;28;20035;-46
2020/12/13 11:21:06;;;;;;;13.65;4.90;;;;;;;;;;5079831;28;20029;-45
2020/12/13 11:23:32;;;;;;;16.45;7.60;;;;;;;;;;5067828;28;20654;-48
2020/12/13 11:25:58;;;;;;;14.00;7.88;;;;;;;;;;5068379;28;20025;-48
2020/12/13 11:28:25;;;;;;;9.70;5.80;;;;;;;;;;5069013;28;20367;-45
2020/12/13 11:30:51;;;;;;;12.32;6.22;;;;;;;;;;5077724;28;20093;-45
2020/12/13 11:33:17;;;;;;;6.35;4.22;;;;;;;;;;5086151;28;20428;-48
2020/12/13 11:35:43;;;;;;;6.40;3.22;;;;;;;;;;5068346;28;20509;-49
2020/12/13 11:38:10;;;;;;;4.28;3.08;;;;;;;;;;5071933;28;20024;-50
2020/12/13 11:40:36;;;;;;;6.00;3.25;;;;;;;;;;5068055;28;20048;-47
2020/12/13 11:43:02;;;;;;;2.50;2.05;;;;;;;;;;5068160;28;20028;-48
2020/12/13 11:45:28;;;;;;;5.22;3.65;;;;;;;;;;5087233;28;20058;-46
2020/12/13 11:47:54;;;;;;;6.00;3.67;;;;;;;;;;5088442;28;20114;-46
2020/12/13 11:50:20;;;;;;;6.50;4.82;;;;;;;;;;5083979;28;20507;-46
2020/12/13 11:52:46;;;;;;;6.55;4.28;;;;;;;;;;5069779;28;20031;-46
2020/12/13 11:55:12;;;;;;;4.68;3.22;;;;;;;;;;5088368;28;20448;-45
2020/12/13 11:57:38;;;;;;;9.25;2.83;;;;;;;;;;5088005;28;20058;-45
2020/12/13 12:00:05;;;;;;;2.90;1.83;;;;;;;;;;5088484;28;20462;-46
2020/12/13 12:02:31;;;;;;;2.90;1.85;;;;;;;;;;5081267;28;20388;-49
2020/12/13 12:04:57;;;;;;;2.00;1.60;;;;;;;;;;5081047;28;20543;-48
2020/12/13 12:07:23;;;;;;;3.25;1.60;;;;;;;;;;5073776;28;20395;-45
2020/12/13 12:09:49;;;;;;;1.10;1.00;;;;;;;;;;5092357;28;20073;-45
2020/12/13 12:12:15;;;;;;;2.35;1.33;;;;;;;;;;5087891;28;20494;-46
2020/12/13 12:14:41;;;;;;;2.15;1.17;;;;;;;;;;5082489;28;20059;-47
2020/12/13 12:17:08;;;;;;;2.30;0.90;;;;;;;;;;5076710;28;20028;-46
2020/12/13 12:19:38;;;;;;;2.25;0.88;;;;;;;;;;5073244;28;20028;-46
2020/12/13 12:22:04;;;;;;;1.42;1.00;;;;;;;;;;5067507;28;20491;-46
2020/12/13 12:24:30;;;;;;;1.58;0.80;;;;;;;;;;5072386;28;20024;-47
2020/12/13 12:26:56;;;;;;;1.40;1.00;;;;;;;;;;5082572;28;20182;-46
2020/12/13 12:29:22;;;;;;;1.67;1.10;;;;;;;;;;5083909;28;20566;-45
2020/12/13 12:31:49;;;;;;;2.10;1.10;;;;;;;;;;5079554;28;20027;-47
2020/12/13 12:34:15;;;;;;;3.45;1.08;;;;;;;;;;5070980;28;20094;-45
2020/12/13 12:36:42;;;;;;;3.20;1.10;;;;;;;;;;5082625;28;20060;-48
2020/12/13 12:39:08;;;;;;;3.53;1.08;;;;;;;;;;5087281;28;20052;-46
2020/12/13 12:41:34;;;;;;;1.80;0.98;;;;;;;;;;5087071;28;20359;-47
2020/12/13 12:44:00;;;;;;;1.30;1.00;;;;;;;;;;5077982;28;20040;-51
2020/12/13 12:46:26;;;;;;;0.70;0.70;;;;;;;;;;5072456;28;20430;-47
2020/12/13 12:48:52;;;;;;;0.82;0.60;;;;;;;;;;5087394;28;20024;-45
2020/12/13 12:51:19;;;;;;;2.03;1.10;;;;;;;;;;5085807;28;20016;-47
2020/12/13 12:53:46;;;;;;;1.30;0.77;;;;;;;;;;5086302;28;20031;-47
2020/12/13 12:56:12;;;;;;;0.80;0.80;;;;;;;;;;5076310;28;20058;-46
2020/12/13 12:58:46;;;;;;;1.88;0.95;;;;;;;;;;5066374;28;20111;-46
2020/12/13 13:01:18;;;;;;;1.92;1.20;;;;;;;;;;5066877;28;20020;-47
2020/12/13 13:03:46;;;;;;;1.38;0.80;;;;;;;;;;5084178;28;20035;-48
2020/12/13 13:08:44;;;;;;;2.20;0.80;;;;;;;;;;5076260;28;20031;-46
2020/12/13 13:11:22;;;;;;;2.38;0.80;;;;;;;;;;5073693;28;20134;-46
2020/12/13 13:13:50;;;;;;;0.93;0.70;;;;;;;;;;5081667;28;20079;-47
2020/12/13 13:16:16;;;;;;;2.30;0.70;;;;;;;;;;5066600;28;20033;-46
2020/12/13 13:18:44;;;;;;;0.77;0.60;;;;;;;;;;5080870;28;20033;-49
2020/12/13 13:21:10;;;;;;;1.48;0.70;;;;;;;;;;5071262;28;20029;-46
2020/12/13 13:23:39;;;;;;;2.35;1.05;;;;;;;;;;5066467;28;20029;-46
2020/12/13 13:26:06;;;;;;;1.80;1.08;;;;;;;;;;5084067;28;20028;-45
2020/12/13 13:28:32;;;;;;;3.13;1.13;;;;;;;;;;5085458;28;20111;-46
2020/12/13 13:30:58;;;;;;;2.72;1.50;;;;;;;;;;5074497;28;20048;-50
2020/12/13 13:33:24;;;;;;;5.97;1.50;;;;;;;;;;5082968;28;20090;-47
2020/12/13 13:35:51;;;;;;;4.82;1.92;;;;;;;;;;5066701;28;20414;-45
2020/12/13 13:38:17;;;;;;;6.32;2.35;;;;;;;;;;5071422;28;20032;-47
2020/12/13 13:40:44;;;;;;;2.88;1.50;;;;;;;;;;5068453;28;20036;-45
2020/12/13 13:43:10;;;;;;;5.28;2.60;;;;;;;;;;5072089;28;20039;-47
2020/12/13 13:46:00;;;;;;;5.75;1.85;;;;;;;;;;5085261;28;20069;-46
2020/12/13 13:50:51;;;;;;;3.78;1.10;;;;;;;;;;5088270;28;20458;-47
2020/12/13 13:53:17;;;;;;;3.33;1.10;;;;;;;;;;5076866;28;20398;-45
2020/12/13 13:55:56;;;;;;;2.20;1.00;;;;;;;;;;5076240;28;20522;-46
2020/12/13 13:58:25;;;;;;;2.38;1.50;;;;;;;;;;5087303;28;20031;-46
2020/12/13 14:00:51;;;;;;;2.05;1.25;;;;;;;;;;5075069;28;20452;-46
2020/12/13 14:03:18;;;;;;;2.75;0.95;;;;;;;;;;5076201;28;20028;-47
2020/12/13 14:05:50;;;;;;;2.75;1.42;;;;;;;;;;5087530;28;20059;-46
2020/12/13 14:10:44;;;;;;;1.60;0.88;;;;;;;;;;5070274;28;20028;-46
2020/12/13 14:13:10;;;;;;;3.15;1.30;;;;;;;;;;5066975;28;20123;-46
2020/12/13 14:15:36;;;;;;;4.45;1.33;;;;;;;;;;5069284;28;20439;-48
2020/12/13 14:18:02;;;;;;;4.60;1.40;;;;;;;;;;5069763;28;20478;-47
2020/12/13 14:20:28;;;;;;;1.98;1.23;;;;;;;;;;5086123;28;20020;-46
2020/12/13 14:22:54;;;;;;;2.30;1.00;;;;;;;;;;5089219;28;20024;-47
2020/12/13 14:25:21;;;;;;;2.30;1.20;;;;;;;;;;5083558;28;20028;-48
2020/12/13 14:27:47;;;;;;;3.08;1.23;;;;;;;;;;5088856;28;20122;-46
2020/12/13 14:30:13;;;;;;;3.40;1.13;;;;;;;;;;5079973;28;20021;-46
2020/12/13 14:32:39;;;;;;;1.88;0.98;;;;;;;;;;5079269;28;20439;-47
2020/12/13 14:35:07;;;;;;;2.70;1.23;;;;;;;;;;5082555;28;20121;-47
2020/12/13 14:37:33;;;;;;;2.65;1.15;;;;;;;;;;5072086;28;20178;-45
2020/12/13 14:39:59;;;;;;;1.80;1.40;;;;;;;;;;5088904;28;20020;-47
2020/12/13 14:42:26;;;;;;;3.75;1.90;;;;;;;;;;5080165;28;20024;-45
2020/12/13 14:44:54;;;;;;;4.38;1.58;;;;;;;;;;5070892;28;20035;-46
2020/12/13 14:47:21;;;;;;;8.05;3.50;;;;;;;;;;5080154;28;20071;-47
2020/12/13 14:49:47;;;;;;;7.40;4.65;;;;;;;;;;5071348;28;20028;-46
2020/12/13 14:52:13;;;;;;;7.13;4.20;;;;;;;;;;5068201;28;20380;-48
2020/12/13 14:54:39;;;;;;;4.05;2.97;;;;;;;;;;5067648;28;20023;-45
2020/12/13 14:57:05;;;;;;;2.85;2.03;;;;;;;;;;5071457;28;20701;-45